sensor_id;sensor_type;location;lat;lon;timestamp;P1;durP1;ratioP1;P2;durP2;ratioP2
1839;SDS011;920;48.944;9.148;2024-01-30T00:02:16;14.90;;;11.30;;
1839;SDS011;920;48.944;9.148;2024-01-30T00:04:43;16.47;;;11.80;;
1839;SDS011;920;48.944;9.148;2024-01-30T00:07:09;17.37;;;12.00;;
1839;SDS011;920;48.944;9.148;2024-01-30T00:09:38;15.83;;;11.70;;
1839;SDS011;920;48.944;9.148;2024-01-30T00:12:05;16.23;;;12.60;;
1839;SDS011;920;48.944;9.148;2024-01-30T00:14:32;17.37;;;12.07;;
1839;SDS011;920;48.944;9.148;2024-01-30T00:16:59;16.83;;;12.57;;
1839;SDS011;920;48.944;9.148;2024-01-30T00:19:26;16.33;;;11.10;;
1839;SDS011;920;48.944;9.148;2024-01-30T00:21:54;16.87;;;12.10;;
1839;SDS011;920;48.944;9.148;2024-01-30T00:24:21;13.57;;;10.10;;
1839;SDS011;920;48.944;9.148;2024-01-30T00:26:49;13.03;;;10.23;;
1839;SDS011;920;48.944;9.148;2024-01-30T00:29:16;14.50;;;10.60;;
1839;SDS011;920;48.944;9.148;2024-01-30T00:31:44;14.77;;;10.63;;
1839;SDS011;920;48.944;9.148;2024-01-30T00:34:11;16.60;;;10.37;;
1839;SDS011;920;48.944;9.148;2024-01-30T00:36:38;13.10;;;10.47;;
1839;SDS011;920;48.944;9.148;2024-01-30T00:39:05;14.00;;;10.57;;
1839;SDS011;920;48.944;9.148;2024-01-30T00:41:34;16.47;;;11.00;;
1839;SDS011;920;48.944;9.148;2024-01-30T00:44:02;17.10;;;11.20;;
1839;SDS011;920;48.944;9.148;2024-01-30T00:46:29;15.17;;;9.60;;
1839;SDS011;920;48.944;9.148;2024-01-30T00:48:55;19.07;;;11.80;;
1839;SDS011;920;48.944;9.148;2024-01-30T00:51:22;13.90;;;11.30;;
1839;SDS011;920;48.944;9.148;2024-01-30T00:53:49;15.97;;;10.97;;
1839;SDS011;920;48.944;9.148;2024-01-30T00:56:16;14.40;;;10.47;;
1839;SDS011;920;48.944;9.148;2024-01-30T00:58:44;15.40;;;10.77;;
1839;SDS011;920;48.944;9.148;2024-01-30T01:01:12;14.50;;;10.90;;
1839;SDS011;920;48.944;9.148;2024-01-30T01:03:39;16.70;;;11.80;;
1839;SDS011;920;48.944;9.148;2024-01-30T01:06:08;14.37;;;10.70;;
1839;SDS011;920;48.944;9.148;2024-01-30T01:08:35;14.63;;;10.40;;
1839;SDS011;920;48.944;9.148;2024-01-30T01:11:02;12.63;;;9.57;;
1839;SDS011;920;48.944;9.148;2024-01-30T01:13:29;17.67;;;10.00;;
1839;SDS011;920;48.944;9.148;2024-01-30T01:15:56;12.90;;;10.30;;
1839;SDS011;920;48.944;9.148;2024-01-30T01:18:24;14.43;;;10.97;;
1839;SDS011;920;48.944;9.148;2024-01-30T01:20:51;13.47;;;10.20;;
1839;SDS011;920;48.944;9.148;2024-01-30T01:23:17;17.30;;;9.50;;
1839;SDS011;920;48.944;9.148;2024-01-30T01:25:44;12.47;;;8.53;;
1839;SDS011;920;48.944;9.148;2024-01-30T01:28:11;13.17;;;9.70;;
1839;SDS011;920;48.944;9.148;2024-01-30T01:30:37;13.10;;;9.40;;
1839;SDS011;920;48.944;9.148;2024-01-30T01:33:04;14.23;;;10.70;;
1839;SDS011;920;48.944;9.148;2024-01-30T01:35:33;13.20;;;9.87;;
1839;SDS011;920;48.944;9.148;2024-01-30T01:38:00;14.30;;;10.10;;
1839;SDS011;920;48.944;9.148;2024-01-30T01:40:27;15.23;;;9.67;;
1839;SDS011;920;48.944;9.148;2024-01-30T01:42:55;12.77;;;9.50;;
1839;SDS011;920;48.944;9.148;2024-01-30T01:45:22;14.07;;;9.07;;
1839;SDS011;920;48.944;9.148;2024-01-30T01:47:50;12.23;;;9.17;;
1839;SDS011;920;48.944;9.148;2024-01-30T01:50:17;11.83;;;9.17;;
1839;SDS011;920;48.944;9.148;2024-01-30T01:52:46;16.23;;;10.67;;
1839;SDS011;920;48.944;9.148;2024-01-30T01:55:14;16.20;;;11.63;;
1839;SDS011;920;48.944;9.148;2024-01-30T01:57:41;13.60;;;10.23;;
1839;SDS011;920;48.944;9.148;2024-01-30T02:00:08;14.47;;;9.53;;
1839;SDS011;920;48.944;9.148;2024-01-30T02:02:36;12.73;;;9.43;;
1839;SDS011;920;48.944;9.148;2024-01-30T02:05:03;13.80;;;10.40;;
1839;SDS011;920;48.944;9.148;2024-01-30T02:07:30;13.70;;;9.30;;
1839;SDS011;920;48.944;9.148;2024-01-30T02:09:58;15.47;;;9.67;;
1839;SDS011;920;48.944;9.148;2024-01-30T02:12:25;16.00;;;10.80;;
1839;SDS011;920;48.944;9.148;2024-01-30T02:14:52;14.03;;;9.60;;
1839;SDS011;920;48.944;9.148;2024-01-30T02:17:20;14.80;;;11.27;;
1839;SDS011;920;48.944;9.148;2024-01-30T02:19:48;14.97;;;9.57;;
1839;SDS011;920;48.944;9.148;2024-01-30T02:22:16;12.67;;;9.80;;
1839;SDS011;920;48.944;9.148;2024-01-30T02:24:43;12.60;;;9.93;;
1839;SDS011;920;48.944;9.148;2024-01-30T02:27:10;12.77;;;9.57;;
1839;SDS011;920;48.944;9.148;2024-01-30T02:29:36;19.00;;;10.13;;
1839;SDS011;920;48.944;9.148;2024-01-30T02:32:04;13.30;;;9.60;;
1839;SDS011;920;48.944;9.148;2024-01-30T02:34:31;12.53;;;9.00;;
1839;SDS011;920;48.944;9.148;2024-01-30T02:36:58;17.07;;;10.63;;
1839;SDS011;920;48.944;9.148;2024-01-30T02:39:26;12.77;;;9.10;;
1839;SDS011;920;48.944;9.148;2024-01-30T02:41:53;13.30;;;9.37;;
1839;SDS011;920;48.944;9.148;2024-01-30T02:44:20;13.87;;;10.43;;
1839;SDS011;920;48.944;9.148;2024-01-30T02:46:47;13.80;;;9.57;;
1839;SDS011;920;48.944;9.148;2024-01-30T02:49:13;14.80;;;10.00;;
1839;SDS011;920;48.944;9.148;2024-01-30T02:51:40;14.90;;;10.50;;
1839;SDS011;920;48.944;9.148;2024-01-30T02:54:07;12.80;;;8.97;;
1839;SDS011;920;48.944;9.148;2024-01-30T02:56:35;11.67;;;9.50;;
1839;SDS011;920;48.944;9.148;2024-01-30T02:59:01;12.60;;;9.60;;
1839;SDS011;920;48.944;9.148;2024-01-30T03:01:28;14.07;;;9.13;;
1839;SDS011;920;48.944;9.148;2024-01-30T03:03:56;15.40;;;10.23;;
1839;SDS011;920;48.944;9.148;2024-01-30T03:06:23;12.83;;;10.03;;
1839;SDS011;920;48.944;9.148;2024-01-30T03:08:50;14.40;;;9.53;;
1839;SDS011;920;48.944;9.148;2024-01-30T03:11:17;14.40;;;10.60;;
1839;SDS011;920;48.944;9.148;2024-01-30T03:13:45;12.57;;;9.23;;
1839;SDS011;920;48.944;9.148;2024-01-30T03:16:11;13.17;;;9.53;;
1839;SDS011;920;48.944;9.148;2024-01-30T03:18:38;12.60;;;9.50;;
1839;SDS011;920;48.944;9.148;2024-01-30T03:21:05;14.70;;;9.40;;
1839;SDS011;920;48.944;9.148;2024-01-30T03:23:32;11.73;;;9.00;;
1839;SDS011;920;48.944;9.148;2024-01-30T03:25:58;12.60;;;9.40;;
1839;SDS011;920;48.944;9.148;2024-01-30T03:28:25;14.07;;;9.50;;
1839;SDS011;920;48.944;9.148;2024-01-30T03:30:53;14.60;;;9.90;;
1839;SDS011;920;48.944;9.148;2024-01-30T03:33:20;16.30;;;10.90;;
1839;SDS011;920;48.944;9.148;2024-01-30T03:35:47;12.70;;;9.63;;
1839;SDS011;920;48.944;9.148;2024-01-30T03:38:13;13.27;;;9.70;;
1839;SDS011;920;48.944;9.148;2024-01-30T03:40:40;15.53;;;9.80;;
1839;SDS011;920;48.944;9.148;2024-01-30T03:43:07;13.93;;;9.40;;
1839;SDS011;920;48.944;9.148;2024-01-30T03:45:33;12.67;;;9.17;;
1839;SDS011;920;48.944;9.148;2024-01-30T03:48:02;16.40;;;9.20;;
1839;SDS011;920;48.944;9.148;2024-01-30T03:50:28;10.90;;;8.33;;
1839;SDS011;920;48.944;9.148;2024-01-30T03:52:55;13.60;;;8.60;;
1839;SDS011;920;48.944;9.148;2024-01-30T03:55:22;11.33;;;8.00;;
1839;SDS011;920;48.944;9.148;2024-01-30T03:57:49;11.63;;;7.90;;
1839;SDS011;920;48.944;9.148;2024-01-30T04:00:15;10.10;;;7.20;;
1839;SDS011;920;48.944;9.148;2024-01-30T04:02:43;12.63;;;8.50;;
1839;SDS011;920;48.944;9.148;2024-01-30T04:05:11;11.63;;;7.90;;
1839;SDS011;920;48.944;9.148;2024-01-30T04:07:38;11.73;;;8.43;;
1839;SDS011;920;48.944;9.148;2024-01-30T04:10:05;11.53;;;8.70;;
1839;SDS011;920;48.944;9.148;2024-01-30T04:12:32;11.10;;;7.57;;
1839;SDS011;920;48.944;9.148;2024-01-30T04:14:59;10.63;;;7.73;;
1839;SDS011;920;48.944;9.148;2024-01-30T04:17:26;15.27;;;9.00;;
1839;SDS011;920;48.944;9.148;2024-01-30T04:19:54;11.03;;;8.00;;
1839;SDS011;920;48.944;9.148;2024-01-30T04:22:22;8.77;;;6.70;;
1839;SDS011;920;48.944;9.148;2024-01-30T04:24:49;10.80;;;8.17;;
1839;SDS011;920;48.944;9.148;2024-01-30T04:27:15;11.03;;;7.90;;
1839;SDS011;920;48.944;9.148;2024-01-30T04:29:42;13.70;;;8.40;;
1839;SDS011;920;48.944;9.148;2024-01-30T04:32:09;12.60;;;9.37;;
1839;SDS011;920;48.944;9.148;2024-01-30T04:34:36;13.87;;;9.50;;
1839;SDS011;920;48.944;9.148;2024-01-30T04:37:03;12.87;;;9.03;;
1839;SDS011;920;48.944;9.148;2024-01-30T04:39:32;11.10;;;8.97;;
1839;SDS011;920;48.944;9.148;2024-01-30T04:41:59;12.30;;;9.10;;
1839;SDS011;920;48.944;9.148;2024-01-30T04:44:25;12.93;;;9.50;;
1839;SDS011;920;48.944;9.148;2024-01-30T04:46:52;14.73;;;9.87;;
1839;SDS011;920;48.944;9.148;2024-01-30T04:49:19;12.10;;;8.57;;
1839;SDS011;920;48.944;9.148;2024-01-30T04:51:46;14.43;;;9.00;;
1839;SDS011;920;48.944;9.148;2024-01-30T04:54:12;11.57;;;8.43;;
1839;SDS011;920;48.944;9.148;2024-01-30T04:56:40;10.60;;;8.43;;
1839;SDS011;920;48.944;9.148;2024-01-30T04:59:07;11.40;;;9.10;;
1839;SDS011;920;48.944;9.148;2024-01-30T05:01:34;12.20;;;8.53;;
1839;SDS011;920;48.944;9.148;2024-01-30T05:04:01;12.83;;;8.93;;
1839;SDS011;920;48.944;9.148;2024-01-30T05:06:28;12.27;;;8.40;;
1839;SDS011;920;48.944;9.148;2024-01-30T05:08:55;11.47;;;8.30;;
1839;SDS011;920;48.944;9.148;2024-01-30T05:11:22;17.23;;;8.87;;
1839;SDS011;920;48.944;9.148;2024-01-30T05:13:50;11.13;;;8.67;;
1839;SDS011;920;48.944;9.148;2024-01-30T05:16:17;11.87;;;8.67;;
1839;SDS011;920;48.944;9.148;2024-01-30T05:18:44;13.60;;;10.03;;
1839;SDS011;920;48.944;9.148;2024-01-30T05:21:10;13.67;;;9.60;;
1839;SDS011;920;48.944;9.148;2024-01-30T05:23:37;14.47;;;9.87;;
1839;SDS011;920;48.944;9.148;2024-01-30T05:26:04;14.10;;;9.60;;
1839;SDS011;920;48.944;9.148;2024-01-30T05:28:31;14.17;;;10.20;;
1839;SDS011;920;48.944;9.148;2024-01-30T05:30:59;16.20;;;9.90;;
1839;SDS011;920;48.944;9.148;2024-01-30T05:33:26;14.70;;;10.30;;
1839;SDS011;920;48.944;9.148;2024-01-30T05:35:53;14.20;;;9.40;;
1839;SDS011;920;48.944;9.148;2024-01-30T05:38:20;12.30;;;9.23;;
1839;SDS011;920;48.944;9.148;2024-01-30T05:40:47;16.30;;;10.63;;
1839;SDS011;920;48.944;9.148;2024-01-30T05:43:14;14.30;;;10.20;;
1839;SDS011;920;48.944;9.148;2024-01-30T05:45:41;14.40;;;10.63;;
1839;SDS011;920;48.944;9.148;2024-01-30T05:48:09;13.60;;;10.20;;
1839;SDS011;920;48.944;9.148;2024-01-30T05:50:36;13.43;;;9.93;;
1839;SDS011;920;48.944;9.148;2024-01-30T05:53:02;23.40;;;13.70;;
1839;SDS011;920;48.944;9.148;2024-01-30T05:55:29;20.47;;;13.30;;
1839;SDS011;920;48.944;9.148;2024-01-30T05:57:56;22.60;;;14.70;;
1839;SDS011;920;48.944;9.148;2024-01-30T06:00:23;25.07;;;17.43;;
1839;SDS011;920;48.944;9.148;2024-01-30T06:02:50;26.57;;;17.73;;
1839;SDS011;920;48.944;9.148;2024-01-30T06:05:18;25.13;;;15.93;;
1839;SDS011;920;48.944;9.148;2024-01-30T06:07:45;22.90;;;15.20;;
1839;SDS011;920;48.944;9.148;2024-01-30T06:10:11;20.40;;;13.93;;
1839;SDS011;920;48.944;9.148;2024-01-30T06:12:38;15.83;;;10.00;;
1839;SDS011;920;48.944;9.148;2024-01-30T06:15:05;14.50;;;9.60;;
1839;SDS011;920;48.944;9.148;2024-01-30T06:17:33;14.00;;;10.30;;
1839;SDS011;920;48.944;9.148;2024-01-30T06:19:59;15.27;;;10.63;;
1839;SDS011;920;48.944;9.148;2024-01-30T06:22:27;12.90;;;9.20;;
1839;SDS011;920;48.944;9.148;2024-01-30T06:24:54;14.13;;;9.57;;
1839;SDS011;920;48.944;9.148;2024-01-30T06:27:21;14.30;;;10.10;;
1839;SDS011;920;48.944;9.148;2024-01-30T06:29:48;11.83;;;8.60;;
1839;SDS011;920;48.944;9.148;2024-01-30T06:32:15;14.03;;;9.40;;
1839;SDS011;920;48.944;9.148;2024-01-30T06:34:42;13.17;;;8.93;;
1839;SDS011;920;48.944;9.148;2024-01-30T06:37:09;12.73;;;9.00;;
1839;SDS011;920;48.944;9.148;2024-01-30T06:39:37;12.43;;;8.30;;
1839;SDS011;920;48.944;9.148;2024-01-30T06:42:04;11.00;;;8.67;;
1839;SDS011;920;48.944;9.148;2024-01-30T06:44:31;13.40;;;9.30;;
1839;SDS011;920;48.944;9.148;2024-01-30T06:46:57;11.60;;;8.77;;
1839;SDS011;920;48.944;9.148;2024-01-30T06:49:24;16.77;;;10.20;;
1839;SDS011;920;48.944;9.148;2024-01-30T06:51:51;12.60;;;9.53;;
1839;SDS011;920;48.944;9.148;2024-01-30T06:54:17;16.07;;;10.63;;
1839;SDS011;920;48.944;9.148;2024-01-30T06:56:45;16.60;;;9.23;;
1839;SDS011;920;48.944;9.148;2024-01-30T06:59:12;13.80;;;9.60;;
1839;SDS011;920;48.944;9.148;2024-01-30T07:01:39;15.67;;;9.77;;
1839;SDS011;920;48.944;9.148;2024-01-30T07:04:06;13.40;;;10.10;;
1839;SDS011;920;48.944;9.148;2024-01-30T07:06:32;10.03;;;7.63;;
1839;SDS011;920;48.944;9.148;2024-01-30T07:08:59;11.57;;;7.60;;
1839;SDS011;920;48.944;9.148;2024-01-30T07:11:26;11.47;;;8.20;;
1839;SDS011;920;48.944;9.148;2024-01-30T07:13:55;10.10;;;7.70;;
1839;SDS011;920;48.944;9.148;2024-01-30T07:16:22;9.73;;;7.57;;
1839;SDS011;920;48.944;9.148;2024-01-30T07:18:48;9.90;;;7.20;;
1839;SDS011;920;48.944;9.148;2024-01-30T07:21:15;10.07;;;7.33;;
1839;SDS011;920;48.944;9.148;2024-01-30T07:23:42;16.23;;;9.57;;
1839;SDS011;920;48.944;9.148;2024-01-30T07:26:09;13.10;;;8.70;;
1839;SDS011;920;48.944;9.148;2024-01-30T07:28:36;14.50;;;9.53;;
1839;SDS011;920;48.944;9.148;2024-01-30T07:31:05;13.00;;;8.87;;
1839;SDS011;920;48.944;9.148;2024-01-30T07:33:31;12.80;;;8.83;;
1839;SDS011;920;48.944;9.148;2024-01-30T07:35:58;13.63;;;9.67;;
1839;SDS011;920;48.944;9.148;2024-01-30T07:38:25;11.83;;;7.60;;
1839;SDS011;920;48.944;9.148;2024-01-30T07:40:51;13.57;;;8.80;;
1839;SDS011;920;48.944;9.148;2024-01-30T07:43:18;12.57;;;8.60;;
1839;SDS011;920;48.944;9.148;2024-01-30T07:45:45;14.57;;;9.37;;
1839;SDS011;920;48.944;9.148;2024-01-30T07:48:13;14.00;;;8.83;;
1839;SDS011;920;48.944;9.148;2024-01-30T07:50:40;13.80;;;9.50;;
1839;SDS011;920;48.944;9.148;2024-01-30T07:53:07;11.67;;;8.50;;
1839;SDS011;920;48.944;9.148;2024-01-30T07:55:34;12.17;;;8.60;;
1839;SDS011;920;48.944;9.148;2024-01-30T07:58:00;11.97;;;8.60;;
1839;SDS011;920;48.944;9.148;2024-01-30T08:00:26;12.13;;;8.50;;
1839;SDS011;920;48.944;9.148;2024-01-30T08:02:54;12.07;;;8.13;;
1839;SDS011;920;48.944;9.148;2024-01-30T08:05:22;11.00;;;8.67;;
1839;SDS011;920;48.944;9.148;2024-01-30T08:07:49;13.50;;;9.00;;
1839;SDS011;920;48.944;9.148;2024-01-30T08:10:16;11.20;;;8.73;;
1839;SDS011;920;48.944;9.148;2024-01-30T08:12:44;12.07;;;8.43;;
1839;SDS011;920;48.944;9.148;2024-01-30T08:15:11;14.23;;;9.70;;
1839;SDS011;920;48.944;9.148;2024-01-30T08:17:38;10.67;;;8.30;;
1839;SDS011;920;48.944;9.148;2024-01-30T08:20:05;15.27;;;9.13;;
1839;SDS011;920;48.944;9.148;2024-01-30T08:22:34;25.80;;;16.63;;
1839;SDS011;920;48.944;9.148;2024-01-30T08:25:01;20.53;;;13.03;;
1839;SDS011;920;48.944;9.148;2024-01-30T08:27:28;18.90;;;11.50;;
1839;SDS011;920;48.944;9.148;2024-01-30T08:29:55;16.43;;;10.77;;
1839;SDS011;920;48.944;9.148;2024-01-30T08:32:21;15.80;;;9.80;;
1839;SDS011;920;48.944;9.148;2024-01-30T08:34:49;19.60;;;10.67;;
1839;SDS011;920;48.944;9.148;2024-01-30T08:37:16;27.13;;;10.30;;
1839;SDS011;920;48.944;9.148;2024-01-30T08:39:44;20.03;;;10.50;;
1839;SDS011;920;48.944;9.148;2024-01-30T08:42:10;15.10;;;10.17;;
1839;SDS011;920;48.944;9.148;2024-01-30T08:44:37;17.73;;;10.20;;
1839;SDS011;920;48.944;9.148;2024-01-30T08:47:04;16.37;;;10.60;;
1839;SDS011;920;48.944;9.148;2024-01-30T08:49:31;12.60;;;9.87;;
1839;SDS011;920;48.944;9.148;2024-01-30T08:51:58;12.37;;;10.03;;
1839;SDS011;920;48.944;9.148;2024-01-30T08:54:25;12.17;;;9.57;;
1839;SDS011;920;48.944;9.148;2024-01-30T08:56:53;13.00;;;9.37;;
1839;SDS011;920;48.944;9.148;2024-01-30T08:59:21;13.20;;;9.67;;
1839;SDS011;920;48.944;9.148;2024-01-30T09:01:48;15.87;;;9.83;;
1839;SDS011;920;48.944;9.148;2024-01-30T09:04:18;13.43;;;10.07;;
1839;SDS011;920;48.944;9.148;2024-01-30T09:06:45;16.53;;;10.17;;
1839;SDS011;920;48.944;9.148;2024-01-30T09:09:12;15.70;;;9.97;;
1839;SDS011;920;48.944;9.148;2024-01-30T09:11:39;13.73;;;10.33;;
1839;SDS011;920;48.944;9.148;2024-01-30T09:14:07;15.37;;;10.07;;
1839;SDS011;920;48.944;9.148;2024-01-30T09:16:34;12.03;;;8.97;;
1839;SDS011;920;48.944;9.148;2024-01-30T09:19:01;12.77;;;9.47;;
1839;SDS011;920;48.944;9.148;2024-01-30T09:21:28;11.77;;;9.10;;
1839;SDS011;920;48.944;9.148;2024-01-30T09:23:54;16.93;;;9.90;;
1839;SDS011;920;48.944;9.148;2024-01-30T09:26:27;11.67;;;9.70;;
1839;SDS011;920;48.944;9.148;2024-01-30T09:28:54;14.90;;;10.60;;
1839;SDS011;920;48.944;9.148;2024-01-30T09:31:22;12.40;;;10.00;;
1839;SDS011;920;48.944;9.148;2024-01-30T09:33:49;14.63;;;10.93;;
1839;SDS011;920;48.944;9.148;2024-01-30T09:36:16;12.63;;;9.80;;
1839;SDS011;920;48.944;9.148;2024-01-30T09:38:44;12.27;;;9.50;;
1839;SDS011;920;48.944;9.148;2024-01-30T09:41:11;15.13;;;9.90;;
1839;SDS011;920;48.944;9.148;2024-01-30T09:43:39;11.77;;;9.53;;
1839;SDS011;920;48.944;9.148;2024-01-30T09:46:06;14.50;;;10.30;;
1839;SDS011;920;48.944;9.148;2024-01-30T09:48:35;15.00;;;11.20;;
1839;SDS011;920;48.944;9.148;2024-01-30T09:51:03;11.53;;;9.70;;
1839;SDS011;920;48.944;9.148;2024-01-30T09:53:30;10.83;;;9.07;;
1839;SDS011;920;48.944;9.148;2024-01-30T09:55:57;14.27;;;9.63;;
1839;SDS011;920;48.944;9.148;2024-01-30T09:58:24;12.60;;;10.03;;
1839;SDS011;920;48.944;9.148;2024-01-30T10:00:51;10.90;;;9.20;;
1839;SDS011;920;48.944;9.148;2024-01-30T10:03:19;11.60;;;9.83;;
1839;SDS011;920;48.944;9.148;2024-01-30T10:05:47;12.20;;;9.90;;
1839;SDS011;920;48.944;9.148;2024-01-30T10:08:17;13.27;;;9.97;;
1839;SDS011;920;48.944;9.148;2024-01-30T10:10:45;11.43;;;10.20;;
1839;SDS011;920;48.944;9.148;2024-01-30T10:13:12;13.20;;;10.30;;
1839;SDS011;920;48.944;9.148;2024-01-30T10:15:39;12.87;;;10.97;;
1839;SDS011;920;48.944;9.148;2024-01-30T10:18:06;15.47;;;10.37;;
1839;SDS011;920;48.944;9.148;2024-01-30T10:20:35;11.97;;;10.70;;
1839;SDS011;920;48.944;9.148;2024-01-30T10:23:03;11.63;;;9.70;;
1839;SDS011;920;48.944;9.148;2024-01-30T10:25:30;12.80;;;10.23;;
1839;SDS011;920;48.944;9.148;2024-01-30T10:27:59;13.83;;;10.80;;
1839;SDS011;920;48.944;9.148;2024-01-30T10:30:26;10.90;;;9.60;;
1839;SDS011;920;48.944;9.148;2024-01-30T10:32:53;12.67;;;9.90;;
1839;SDS011;920;48.944;9.148;2024-01-30T10:35:20;12.60;;;10.10;;
1839;SDS011;920;48.944;9.148;2024-01-30T10:37:47;13.50;;;9.97;;
1839;SDS011;920;48.944;9.148;2024-01-30T10:40:15;13.20;;;9.20;;
1839;SDS011;920;48.944;9.148;2024-01-30T10:42:43;12.83;;;10.70;;
1839;SDS011;920;48.944;9.148;2024-01-30T10:45:10;14.83;;;10.80;;
1839;SDS011;920;48.944;9.148;2024-01-30T10:47:39;14.60;;;10.90;;
1839;SDS011;920;48.944;9.148;2024-01-30T10:50:07;13.17;;;10.20;;
1839;SDS011;920;48.944;9.148;2024-01-30T10:52:35;13.33;;;10.83;;
1839;SDS011;920;48.944;9.148;2024-01-30T10:55:04;13.10;;;10.20;;
1839;SDS011;920;48.944;9.148;2024-01-30T10:57:34;13.50;;;10.00;;
1839;SDS011;920;48.944;9.148;2024-01-30T11:00:02;11.50;;;9.23;;
1839;SDS011;920;48.944;9.148;2024-01-30T11:02:31;11.60;;;9.17;;
1839;SDS011;920;48.944;9.148;2024-01-30T11:04:58;10.70;;;9.33;;
1839;SDS011;920;48.944;9.148;2024-01-30T11:07:26;12.33;;;10.00;;
1839;SDS011;920;48.944;9.148;2024-01-30T11:09:59;10.30;;;8.80;;
1839;SDS011;920;48.944;9.148;2024-01-30T11:12:27;10.07;;;8.90;;
1839;SDS011;920;48.944;9.148;2024-01-30T11:15:05;12.33;;;10.33;;
1839;SDS011;920;48.944;9.148;2024-01-30T11:17:41;11.00;;;9.53;;
1839;SDS011;920;48.944;9.148;2024-01-30T11:20:09;13.40;;;9.53;;
1839;SDS011;920;48.944;9.148;2024-01-30T11:22:37;12.70;;;10.00;;
1839;SDS011;920;48.944;9.148;2024-01-30T11:25:04;10.87;;;9.70;;
1839;SDS011;920;48.944;9.148;2024-01-30T11:27:31;10.30;;;8.80;;
1839;SDS011;920;48.944;9.148;2024-01-30T11:30:00;13.07;;;9.93;;
1839;SDS011;920;48.944;9.148;2024-01-30T11:32:29;15.60;;;10.70;;
1839;SDS011;920;48.944;9.148;2024-01-30T11:34:55;13.30;;;9.83;;
1839;SDS011;920;48.944;9.148;2024-01-30T11:37:22;13.57;;;9.73;;
1839;SDS011;920;48.944;9.148;2024-01-30T11:39:52;13.00;;;10.10;;
1839;SDS011;920;48.944;9.148;2024-01-30T11:42:23;11.83;;;9.90;;
1839;SDS011;920;48.944;9.148;2024-01-30T11:44:51;12.00;;;10.27;;
1839;SDS011;920;48.944;9.148;2024-01-30T11:47:17;11.57;;;9.90;;
1839;SDS011;920;48.944;9.148;2024-01-30T11:49:45;11.40;;;9.33;;
1839;SDS011;920;48.944;9.148;2024-01-30T11:52:12;12.27;;;8.90;;
1839;SDS011;920;48.944;9.148;2024-01-30T11:54:39;10.90;;;9.37;;
1839;SDS011;920;48.944;9.148;2024-01-30T11:57:06;13.07;;;10.97;;
1839;SDS011;920;48.944;9.148;2024-01-30T11:59:34;17.50;;;13.70;;
1839;SDS011;920;48.944;9.148;2024-01-30T12:02:00;13.07;;;11.40;;
1839;SDS011;920;48.944;9.148;2024-01-30T12:04:28;13.20;;;10.37;;
1839;SDS011;920;48.944;9.148;2024-01-30T12:06:56;11.27;;;9.40;;
1839;SDS011;920;48.944;9.148;2024-01-30T12:09:23;11.97;;;10.13;;
1839;SDS011;920;48.944;9.148;2024-01-30T12:11:50;11.13;;;9.47;;
1839;SDS011;920;48.944;9.148;2024-01-30T12:14:17;13.63;;;8.90;;
1839;SDS011;920;48.944;9.148;2024-01-30T12:16:47;10.17;;;9.17;;
1839;SDS011;920;48.944;9.148;2024-01-30T12:19:21;12.30;;;10.10;;
1839;SDS011;920;48.944;9.148;2024-01-30T12:21:53;12.07;;;9.93;;
1839;SDS011;920;48.944;9.148;2024-01-30T12:24:21;14.17;;;11.00;;
1839;SDS011;920;48.944;9.148;2024-01-30T12:26:48;12.40;;;10.60;;
1839;SDS011;920;48.944;9.148;2024-01-30T12:29:15;13.07;;;10.83;;
1839;SDS011;920;48.944;9.148;2024-01-30T12:31:42;16.73;;;10.80;;
1839;SDS011;920;48.944;9.148;2024-01-30T12:34:08;13.43;;;11.10;;
1839;SDS011;920;48.944;9.148;2024-01-30T12:36:35;11.80;;;10.30;;
1839;SDS011;920;48.944;9.148;2024-01-30T12:39:02;11.20;;;9.93;;
1839;SDS011;920;48.944;9.148;2024-01-30T12:41:31;13.10;;;10.20;;
1839;SDS011;920;48.944;9.148;2024-01-30T12:43:58;13.50;;;9.60;;
1839;SDS011;920;48.944;9.148;2024-01-30T12:46:25;12.10;;;10.50;;
1839;SDS011;920;48.944;9.148;2024-01-30T12:48:54;13.53;;;10.57;;
1839;SDS011;920;48.944;9.148;2024-01-30T12:51:20;14.53;;;10.80;;
1839;SDS011;920;48.944;9.148;2024-01-30T12:53:47;14.70;;;12.07;;
1839;SDS011;920;48.944;9.148;2024-01-30T12:56:14;15.93;;;10.50;;
1839;SDS011;920;48.944;9.148;2024-01-30T12:58:42;13.40;;;10.40;;
1839;SDS011;920;48.944;9.148;2024-01-30T13:01:09;12.90;;;10.57;;
1839;SDS011;920;48.944;9.148;2024-01-30T13:03:36;12.10;;;10.83;;
1839;SDS011;920;48.944;9.148;2024-01-30T13:06:03;12.30;;;11.00;;
1839;SDS011;920;48.944;9.148;2024-01-30T13:08:30;13.43;;;11.00;;
1839;SDS011;920;48.944;9.148;2024-01-30T13:10:56;13.30;;;10.63;;
1839;SDS011;920;48.944;9.148;2024-01-30T13:13:23;13.00;;;10.30;;
1839;SDS011;920;48.944;9.148;2024-01-30T13:15:51;12.03;;;10.53;;
1839;SDS011;920;48.944;9.148;2024-01-30T13:18:18;12.20;;;10.07;;
1839;SDS011;920;48.944;9.148;2024-01-30T13:20:45;13.57;;;11.10;;
1839;SDS011;920;48.944;9.148;2024-01-30T13:23:11;11.40;;;10.13;;
1839;SDS011;920;48.944;9.148;2024-01-30T13:25:38;12.20;;;10.63;;
1839;SDS011;920;48.944;9.148;2024-01-30T13:28:05;11.17;;;9.97;;
1839;SDS011;920;48.944;9.148;2024-01-30T13:30:32;13.00;;;10.03;;
1839;SDS011;920;48.944;9.148;2024-01-30T13:33:00;12.70;;;10.30;;
1839;SDS011;920;48.944;9.148;2024-01-30T13:35:28;12.30;;;9.97;;
1839;SDS011;920;48.944;9.148;2024-01-30T13:37:55;13.67;;;10.10;;
1839;SDS011;920;48.944;9.148;2024-01-30T13:40:22;12.50;;;10.43;;
1839;SDS011;920;48.944;9.148;2024-01-30T13:42:48;13.73;;;10.10;;
1839;SDS011;920;48.944;9.148;2024-01-30T13:45:15;14.20;;;9.20;;
1839;SDS011;920;48.944;9.148;2024-01-30T13:47:42;14.20;;;8.73;;
1839;SDS011;920;48.944;9.148;2024-01-30T13:50:10;12.10;;;10.37;;
1839;SDS011;920;48.944;9.148;2024-01-30T13:52:40;12.37;;;10.07;;
1839;SDS011;920;48.944;9.148;2024-01-30T13:55:07;13.97;;;10.90;;
1839;SDS011;920;48.944;9.148;2024-01-30T13:57:34;14.13;;;10.77;;
1839;SDS011;920;48.944;9.148;2024-01-30T14:00:01;11.67;;;10.20;;
1839;SDS011;920;48.944;9.148;2024-01-30T14:02:38;11.40;;;10.20;;
1839;SDS011;920;48.944;9.148;2024-01-30T14:05:05;11.03;;;9.70;;
1839;SDS011;920;48.944;9.148;2024-01-30T14:07:33;11.13;;;10.00;;
1839;SDS011;920;48.944;9.148;2024-01-30T14:10:00;12.23;;;9.57;;
1839;SDS011;920;48.944;9.148;2024-01-30T14:12:26;13.00;;;10.73;;
1839;SDS011;920;48.944;9.148;2024-01-30T14:14:55;14.43;;;9.93;;
1839;SDS011;920;48.944;9.148;2024-01-30T14:17:22;12.47;;;9.80;;
1839;SDS011;920;48.944;9.148;2024-01-30T14:19:48;12.60;;;9.97;;
1839;SDS011;920;48.944;9.148;2024-01-30T14:22:15;10.70;;;9.60;;
1839;SDS011;920;48.944;9.148;2024-01-30T14:24:43;13.63;;;10.27;;
1839;SDS011;920;48.944;9.148;2024-01-30T14:27:12;12.17;;;9.90;;
1839;SDS011;920;48.944;9.148;2024-01-30T14:29:39;12.87;;;10.10;;
1839;SDS011;920;48.944;9.148;2024-01-30T14:32:07;11.50;;;9.67;;
1839;SDS011;920;48.944;9.148;2024-01-30T14:34:34;21.37;;;14.90;;
1839;SDS011;920;48.944;9.148;2024-01-30T14:37:01;23.93;;;16.67;;
1839;SDS011;920;48.944;9.148;2024-01-30T14:39:27;21.47;;;14.53;;
1839;SDS011;920;48.944;9.148;2024-01-30T14:41:55;17.30;;;13.40;;
1839;SDS011;920;48.944;9.148;2024-01-30T14:44:22;13.57;;;11.87;;
1839;SDS011;920;48.944;9.148;2024-01-30T14:46:49;16.53;;;12.10;;
1839;SDS011;920;48.944;9.148;2024-01-30T14:49:16;13.70;;;11.00;;
1839;SDS011;920;48.944;9.148;2024-01-30T14:51:42;12.37;;;10.80;;
1839;SDS011;920;48.944;9.148;2024-01-30T14:54:09;12.20;;;10.93;;
1839;SDS011;920;48.944;9.148;2024-01-30T14:56:36;14.63;;;11.60;;
1839;SDS011;920;48.944;9.148;2024-01-30T14:59:04;16.23;;;11.23;;
1839;SDS011;920;48.944;9.148;2024-01-30T15:01:31;14.63;;;10.57;;
1839;SDS011;920;48.944;9.148;2024-01-30T15:04:00;13.53;;;10.00;;
1839;SDS011;920;48.944;9.148;2024-01-30T15:06:27;12.53;;;10.40;;
1839;SDS011;920;48.944;9.148;2024-01-30T15:08:54;11.97;;;10.07;;
1839;SDS011;920;48.944;9.148;2024-01-30T15:11:21;13.40;;;10.70;;